createdAt,value
2023-05-10T00:02:05.895Z,11.40
2023-05-10T00:04:33.875Z,11.40
2023-05-10T00:07:01.794Z,11.20
2023-05-10T00:09:29.950Z,11.10
2023-05-10T00:11:59.487Z,11.10
2023-05-10T00:14:27.460Z,11.00
2023-05-10T00:16:56.773Z,11.00
2023-05-10T00:19:24.724Z,10.90
2023-05-10T00:21:52.659Z,10.90
2023-05-10T00:24:20.626Z,10.90
2023-05-10T00:26:48.548Z,10.80
2023-05-10T00:29:16.452Z,10.80
2023-05-10T00:31:44.431Z,10.70
2023-05-10T00:34:13.864Z,10.70
2023-05-10T00:36:42.027Z,10.70
2023-05-10T00:39:10.093Z,10.70
2023-05-10T00:41:38.039Z,10.70
2023-05-10T00:44:06.383Z,10.70
2023-05-10T00:46:34.695Z,10.70
2023-05-10T00:49:02.945Z,10.60
2023-05-10T00:51:32.700Z,10.60
2023-05-10T00:54:01.005Z,10.50
2023-05-10T00:56:30.614Z,10.40
2023-05-10T00:58:58.652Z,10.30
2023-05-10T01:01:27.408Z,10.30
2023-05-10T01:03:56.953Z,10.40
2023-05-10T01:06:24.936Z,10.30
2023-05-10T01:08:54.302Z,10.30
2023-05-10T01:11:22.286Z,10.30
2023-05-10T01:13:55.874Z,10.20
2023-05-10T01:16:24.231Z,10.20
2023-05-10T01:18:53.278Z,10.10
2023-05-10T01:21:29.744Z,10.10
2023-05-10T01:24:19.691Z,10.10
2023-05-10T01:27:27.074Z,10.00
2023-05-10T01:30:30.749Z,10.00
2023-05-10T01:33:08.446Z,10.00
2023-05-10T01:35:41.993Z,10.00
2023-05-10T01:38:19.400Z,10.00
2023-05-10T01:40:55.718Z,10.10
2023-05-10T01:43:28.458Z,10.00
2023-05-10T01:46:05.640Z,10.00
2023-05-10T01:48:35.900Z,10.00
2023-05-10T01:51:04.587Z,10.00
2023-05-10T01:53:34.292Z,9.90
2023-05-10T01:56:04.160Z,9.90
2023-05-10T01:58:34.825Z,9.80
2023-05-10T02:01:05.383Z,9.80
2023-05-10T02:03:37.834Z,9.60
2023-05-10T02:06:07.018Z,9.80
2023-05-10T02:08:37.971Z,9.80
2023-05-10T02:11:07.325Z,9.80
2023-05-10T02:13:38.090Z,9.70
2023-05-10T02:16:08.128Z,9.70
2023-05-10T02:18:38.436Z,9.70
2023-05-10T02:21:07.153Z,9.60
2023-05-10T02:23:36.633Z,9.50
2023-05-10T02:26:06.875Z,9.50
2023-05-10T02:28:38.609Z,9.50
2023-05-10T02:31:08.285Z,9.50
2023-05-10T02:33:37.900Z,9.40
2023-05-10T02:36:07.015Z,9.40
2023-05-10T02:38:36.107Z,9.30
2023-05-10T02:41:06.226Z,9.30
2023-05-10T02:43:35.426Z,9.40
2023-05-10T02:46:04.251Z,9.30
2023-05-10T02:48:32.475Z,9.30
2023-05-10T02:51:06.652Z,9.40
2023-05-10T02:53:36.824Z,9.30
2023-05-10T02:56:14.455Z,9.20
2023-05-10T02:58:42.353Z,9.20
2023-05-10T03:01:10.759Z,9.30
2023-05-10T03:03:38.860Z,9.40
2023-05-10T03:06:08.493Z,9.40
2023-05-10T03:08:36.410Z,9.30
2023-05-10T03:11:18.834Z,9.20
2023-05-10T03:13:57.545Z,9.20
2023-05-10T03:16:29.597Z,9.20
2023-05-10T03:19:03.808Z,9.20
2023-05-10T03:21:34.217Z,9.30
2023-05-10T03:24:08.949Z,9.30
2023-05-10T03:26:39.160Z,9.30
2023-05-10T03:29:08.588Z,9.20
2023-05-10T03:31:36.698Z,9.20
2023-05-10T03:34:04.809Z,9.20
2023-05-10T03:36:34.377Z,9.20
2023-05-10T03:39:02.488Z,9.20
2023-05-10T03:41:31.098Z,9.20
2023-05-10T03:43:59.269Z,9.20
2023-05-10T03:46:27.288Z,9.30
2023-05-10T03:48:55.334Z,9.30
2023-05-10T03:51:23.290Z,9.20
2023-05-10T03:53:52.686Z,9.20
2023-05-10T03:56:21.758Z,9.30
2023-05-10T03:58:49.638Z,9.30
2023-05-10T04:01:17.658Z,9.30
2023-05-10T04:03:45.975Z,9.40
2023-05-10T04:06:13.990Z,9.40
2023-05-10T04:08:41.881Z,9.40
2023-05-10T04:11:13.629Z,9.40
2023-05-10T04:13:41.691Z,9.30
2023-05-10T04:16:09.766Z,9.30
2023-05-10T04:18:37.882Z,9.40
2023-05-10T04:21:06.129Z,9.40
2023-05-10T04:23:34.180Z,9.60
2023-05-10T04:26:03.051Z,9.60
2023-05-10T04:28:32.609Z,9.70
2023-05-10T04:31:05.062Z,10.00
2023-05-10T04:33:33.923Z,10.20
2023-05-10T04:36:02.733Z,10.30
2023-05-10T04:38:31.054Z,10.50
2023-05-10T04:41:06.862Z,10.60
2023-05-10T04:43:36.393Z,10.70
2023-05-10T04:46:04.505Z,10.80
2023-05-10T04:48:32.562Z,10.90
2023-05-10T04:51:00.677Z,11.10
2023-05-10T04:53:28.609Z,11.30
2023-05-10T04:55:56.590Z,11.40
2023-05-10T04:58:24.480Z,11.60
2023-05-10T05:00:53.829Z,11.70
2023-05-10T05:03:21.839Z,11.90
2023-05-10T05:05:49.836Z,12.00
2023-05-10T05:08:17.704Z,12.20
2023-05-10T05:10:45.635Z,12.50
2023-05-10T05:13:14.922Z,13.10
2023-05-10T05:15:42.966Z,13.60
2023-05-10T05:18:12.536Z,14.00
2023-05-10T05:20:40.832Z,14.10
2023-05-10T05:23:09.299Z,14.00
2023-05-10T05:25:37.790Z,14.10
2023-05-10T05:28:06.023Z,14.20
2023-05-10T05:30:34.059Z,14.20
2023-05-10T05:33:02.040Z,14.20
2023-05-10T05:35:31.347Z,14.20
2023-05-10T05:37:59.180Z,14.30
2023-05-10T05:40:27.230Z,14.20
2023-05-10T05:42:55.156Z,14.30
2023-05-10T05:45:23.053Z,14.40
2023-05-10T05:47:51.394Z,14.60
2023-05-10T05:50:19.515Z,14.60
2023-05-10T05:52:48.775Z,14.70
2023-05-10T05:55:17.009Z,14.80
2023-05-10T05:57:45.172Z,14.90
2023-05-10T06:00:14.361Z,14.90
2023-05-10T06:02:42.328Z,14.90
2023-05-10T06:05:11.001Z,15.00
2023-05-10T06:07:38.863Z,15.10
2023-05-10T06:10:09.462Z,15.20
2023-05-10T06:12:37.830Z,15.30
2023-05-10T06:15:06.615Z,15.40
2023-05-10T06:17:34.549Z,15.60
2023-05-10T06:20:02.557Z,15.70
2023-05-10T06:22:30.441Z,15.60
2023-05-10T06:24:58.552Z,15.70
2023-05-10T06:27:27.935Z,15.90
2023-05-10T06:30:02.137Z,16.10
2023-05-10T06:32:33.683Z,16.10
2023-05-10T06:35:01.745Z,16.20
2023-05-10T06:37:29.683Z,16.20
2023-05-10T06:39:57.638Z,16.30
2023-05-10T06:42:28.180Z,16.40
2023-05-10T06:44:56.270Z,16.60
2023-05-10T06:47:24.210Z,16.80
2023-05-10T06:49:52.204Z,16.80
2023-05-10T06:52:20.425Z,16.80
2023-05-10T06:54:48.455Z,16.80
2023-05-10T06:57:30.677Z,16.90
2023-05-10T07:00:01.881Z,17.00
2023-05-10T07:02:30.014Z,16.80
2023-05-10T07:05:01.694Z,16.80
2023-05-10T07:07:31.030Z,16.80
2023-05-10T07:09:59.220Z,16.80
2023-05-10T07:12:27.291Z,16.90
2023-05-10T07:14:55.248Z,17.00
2023-05-10T07:17:25.278Z,17.00
2023-05-10T07:19:55.418Z,16.90
2023-05-10T07:22:23.405Z,17.10
2023-05-10T07:24:51.338Z,17.10
2023-05-10T07:27:19.304Z,17.30
2023-05-10T07:29:47.246Z,17.50
2023-05-10T07:32:15.165Z,17.60
2023-05-10T07:34:44.634Z,17.80
2023-05-10T07:37:14.789Z,18.00
2023-05-10T07:39:42.688Z,18.10
2023-05-10T07:42:10.743Z,18.40
2023-05-10T07:44:38.586Z,18.30
2023-05-10T07:47:06.551Z,18.10
2023-05-10T07:49:34.468Z,18.20
2023-05-10T07:52:05.414Z,18.20
2023-05-10T07:54:33.560Z,18.40
2023-05-10T07:57:02.044Z,18.50
2023-05-10T07:59:30.005Z,18.60
2023-05-10T08:01:58.252Z,18.90
2023-05-10T08:04:26.285Z,19.00
2023-05-10T08:06:54.266Z,19.00
2023-05-10T08:09:25.138Z,19.20
2023-05-10T08:11:53.386Z,19.50
2023-05-10T08:14:21.495Z,19.70
2023-05-10T08:16:49.488Z,19.70
2023-05-10T08:19:20.013Z,19.80
2023-05-10T08:21:48.141Z,19.80
2023-05-10T08:24:16.318Z,19.80
2023-05-10T08:26:45.787Z,19.70
2023-05-10T08:29:13.892Z,19.80
2023-05-10T08:31:42.075Z,19.80
2023-05-10T08:34:10.118Z,19.80
2023-05-10T08:36:38.212Z,19.70
2023-05-10T08:39:13.498Z,19.80
2023-05-10T08:41:50.113Z,20.00
2023-05-10T08:44:19.683Z,20.20
2023-05-10T08:46:52.688Z,20.30
2023-05-10T08:49:22.847Z,20.40
2023-05-10T08:51:56.953Z,20.50
2023-05-10T08:54:26.249Z,20.50
2023-05-10T08:56:55.542Z,20.50
2023-05-10T08:59:23.532Z,20.50
2023-05-10T09:01:52.539Z,20.60
2023-05-10T09:04:21.501Z,20.60
2023-05-10T09:06:49.556Z,20.40
2023-05-10T09:09:18.966Z,20.30
2023-05-10T09:11:47.187Z,20.20
2023-05-10T09:14:18.317Z,20.40
2023-05-10T09:16:46.724Z,20.50
2023-05-10T09:19:14.700Z,20.70
2023-05-10T09:21:42.652Z,20.90
2023-05-10T09:24:11.233Z,20.80
2023-05-10T09:26:48.840Z,20.90
2023-05-10T09:29:18.372Z,20.90
2023-05-10T09:31:48.785Z,20.80
2023-05-10T09:34:21.128Z,20.70
2023-05-10T09:36:57.847Z,20.80
2023-05-10T09:39:33.926Z,20.90
2023-05-10T09:42:04.676Z,20.90
2023-05-10T09:44:34.958Z,20.80
2023-05-10T09:47:03.061Z,21.00
2023-05-10T09:49:31.472Z,21.10
2023-05-10T09:52:04.483Z,21.10
2023-05-10T09:54:32.773Z,21.20
2023-05-10T09:57:00.842Z,21.20
2023-05-10T09:59:30.650Z,21.40
2023-05-10T10:02:01.622Z,21.40
2023-05-10T10:04:30.105Z,21.40
2023-05-10T10:07:02.823Z,21.50
2023-05-10T10:09:31.156Z,21.30
2023-05-10T10:11:59.899Z,21.00
2023-05-10T10:14:27.976Z,21.20
2023-05-10T10:17:07.407Z,21.10
2023-05-10T10:19:38.603Z,21.30
2023-05-10T10:22:07.599Z,21.30
2023-05-10T10:24:35.796Z,21.30
2023-05-10T10:27:11.105Z,21.50
2023-05-10T10:29:46.792Z,21.50
2023-05-10T10:32:27.931Z,21.40
2023-05-10T10:34:58.414Z,21.20
2023-05-10T10:37:42.914Z,21.00
2023-05-10T10:40:26.510Z,20.90
2023-05-10T10:42:54.782Z,21.10
2023-05-10T10:45:24.268Z,21.10
2023-05-10T10:48:10.945Z,21.10
2023-05-10T10:50:47.873Z,21.10
2023-05-10T10:53:15.782Z,21.30
2023-05-10T10:55:50.236Z,21.40
2023-05-10T10:58:33.235Z,21.40
2023-05-10T11:01:15.685Z,21.40
2023-05-10T11:03:57.315Z,21.40
2023-05-10T11:06:34.466Z,21.30
2023-05-10T11:09:08.541Z,21.20
2023-05-10T11:11:37.056Z,21.30
2023-05-10T11:14:05.905Z,21.30
2023-05-10T11:16:44.259Z,21.40
2023-05-10T11:19:14.033Z,21.40
2023-05-10T11:21:51.796Z,21.50
2023-05-10T11:24:21.378Z,21.50
2023-05-10T11:26:52.359Z,21.40
2023-05-10T11:29:21.015Z,21.40
2023-05-10T11:31:49.970Z,21.50
2023-05-10T11:34:26.527Z,21.60
2023-05-10T11:36:56.798Z,21.70
2023-05-10T11:39:28.924Z,21.70
2023-05-10T11:41:57.262Z,21.80
2023-05-10T11:44:25.919Z,21.80
2023-05-10T11:46:54.360Z,21.90
2023-05-10T11:49:25.597Z,21.90
2023-05-10T11:51:54.817Z,22.00
2023-05-10T11:54:22.739Z,22.00
2023-05-10T11:56:53.619Z,22.00
2023-05-10T11:59:21.790Z,22.00
2023-05-10T12:01:50.212Z,22.10
2023-05-10T12:04:18.351Z,22.10
2023-05-10T12:06:47.701Z,22.20
2023-05-10T12:09:19.187Z,22.20
2023-05-10T12:11:51.388Z,22.20
2023-05-10T12:14:20.480Z,22.50
2023-05-10T12:16:49.912Z,22.70
2023-05-10T12:19:21.360Z,22.90
2023-05-10T12:21:49.450Z,22.90
2023-05-10T12:24:20.181Z,23.00
2023-05-10T12:27:07.668Z,23.20
2023-05-10T12:29:35.828Z,23.30
2023-05-10T12:32:05.327Z,23.40
2023-05-10T12:34:34.797Z,23.40
2023-05-10T12:37:03.773Z,23.50
2023-05-10T12:39:43.006Z,23.50
2023-05-10T12:42:11.544Z,23.70
2023-05-10T12:44:39.739Z,23.70
2023-05-10T12:47:07.870Z,23.60
2023-05-10T12:49:35.959Z,23.40
2023-05-10T12:52:03.994Z,23.50
2023-05-10T12:54:31.915Z,23.50
2023-05-10T12:57:01.131Z,23.80
2023-05-10T12:59:29.053Z,24.20
2023-05-10T13:01:57.123Z,24.50
2023-05-10T13:04:25.197Z,24.70
2023-05-10T13:06:53.603Z,24.90
2023-05-10T13:09:22.232Z,24.90
2023-05-10T13:11:50.934Z,24.90
2023-05-10T13:14:21.441Z,24.70
2023-05-10T13:16:50.207Z,24.90
2023-05-10T13:19:18.901Z,25.20
2023-05-10T13:21:47.415Z,25.10
2023-05-10T13:24:15.925Z,24.90
2023-05-10T13:26:43.875Z,24.70
2023-05-10T13:29:11.876Z,24.70
2023-05-10T13:31:41.437Z,24.60
2023-05-10T13:34:09.548Z,24.50
2023-05-10T13:36:37.393Z,24.30
2023-05-10T13:39:06.338Z,24.10
2023-05-10T13:41:34.536Z,24.00
2023-05-10T13:44:02.578Z,23.90
2023-05-10T13:46:31.258Z,23.70
2023-05-10T13:49:00.721Z,23.60
2023-05-10T13:51:29.221Z,23.40
2023-05-10T13:53:57.487Z,23.40
2023-05-10T13:56:25.496Z,23.30
2023-05-10T13:58:53.448Z,23.20
2023-05-10T14:01:21.671Z,23.10
2023-05-10T14:03:49.785Z,23.20
2023-05-10T14:06:19.379Z,23.20
2023-05-10T14:08:49.481Z,23.40
2023-05-10T14:11:17.421Z,23.40
2023-05-10T14:13:45.406Z,23.40
2023-05-10T14:16:15.784Z,23.40
2023-05-10T14:18:44.146Z,23.40
2023-05-10T14:21:12.233Z,23.40
2023-05-10T14:23:41.891Z,23.40
2023-05-10T14:26:10.281Z,23.30
2023-05-10T14:28:38.248Z,23.30
2023-05-10T14:31:06.616Z,23.30
2023-05-10T14:33:34.778Z,23.30
2023-05-10T14:36:04.507Z,23.30
2023-05-10T14:38:32.687Z,23.40
2023-05-10T14:41:02.965Z,23.30
2023-05-10T14:43:31.664Z,23.20
2023-05-10T14:46:00.406Z,23.00
2023-05-10T14:48:28.304Z,22.90
2023-05-10T14:50:56.329Z,22.90
2023-05-10T14:53:25.663Z,22.70
2023-05-10T14:55:53.870Z,22.50
2023-05-10T14:58:23.228Z,22.50
2023-05-10T15:00:51.143Z,22.30
2023-05-10T15:03:20.095Z,22.20
2023-05-10T15:05:49.239Z,22.30
2023-05-10T15:08:17.286Z,22.50
2023-05-10T15:10:45.213Z,22.60
2023-05-10T15:13:13.124Z,22.80
2023-05-10T15:15:42.486Z,22.70
2023-05-10T15:18:11.311Z,22.60
2023-05-10T15:20:39.318Z,22.50
2023-05-10T15:23:07.457Z,22.30
2023-05-10T15:25:38.119Z,22.10
2023-05-10T15:28:06.598Z,21.90
2023-05-10T15:30:38.361Z,21.70
2023-05-10T15:33:08.749Z,21.60
2023-05-10T15:35:39.308Z,21.50
2023-05-10T15:38:07.240Z,21.30
2023-05-10T15:40:35.203Z,21.20
2023-05-10T15:43:03.156Z,21.10
2023-05-10T15:45:31.327Z,21.10
2023-05-10T15:48:00.074Z,21.30
2023-05-10T15:50:29.457Z,21.10
2023-05-10T15:52:57.366Z,21.10
2023-05-10T15:55:25.522Z,21.10
2023-05-10T15:57:53.648Z,21.10
2023-05-10T16:00:22.024Z,21.00
2023-05-10T16:02:51.565Z,21.00
2023-05-10T16:05:19.990Z,20.80
2023-05-10T16:07:49.584Z,20.80
2023-05-10T16:10:17.581Z,20.80
2023-05-10T16:12:45.547Z,20.80
2023-05-10T16:15:13.608Z,20.80
2023-05-10T16:17:41.913Z,20.60
2023-05-10T16:20:10.714Z,20.60
2023-05-10T16:22:38.631Z,20.40
2023-05-10T16:25:08.549Z,20.30
2023-05-10T16:27:36.526Z,20.10
2023-05-10T16:30:04.642Z,20.20
2023-05-10T16:32:32.862Z,20.10
2023-05-10T16:35:01.000Z,19.90
2023-05-10T16:37:29.788Z,19.70
2023-05-10T16:39:57.748Z,19.50
2023-05-10T16:42:28.123Z,19.60
2023-05-10T16:44:56.057Z,19.50
2023-05-10T16:47:26.739Z,19.50
2023-05-10T16:49:54.835Z,19.40
2023-05-10T16:52:23.829Z,19.40
2023-05-10T16:54:51.808Z,19.30
2023-05-10T16:57:19.752Z,19.30
2023-05-10T16:59:49.088Z,19.20
2023-05-10T17:02:17.259Z,19.10
2023-05-10T17:04:45.163Z,19.10
2023-05-10T17:07:13.304Z,19.00
2023-05-10T17:09:43.596Z,19.00
2023-05-10T17:12:11.715Z,19.00
2023-05-10T17:14:40.020Z,19.00
2023-05-10T17:17:09.419Z,18.90
2023-05-10T17:19:37.414Z,18.90
2023-05-10T17:22:05.387Z,18.90
2023-05-10T17:24:33.284Z,18.90
2023-05-10T17:27:03.566Z,18.80
2023-05-10T17:29:32.161Z,18.80
2023-05-10T17:32:00.149Z,18.80
2023-05-10T17:34:29.477Z,18.70
2023-05-10T17:36:58.642Z,18.70
2023-05-10T17:39:27.907Z,18.70
2023-05-10T17:41:55.842Z,18.70
2023-05-10T17:44:25.386Z,18.60
2023-05-10T17:46:53.236Z,18.50
2023-05-10T17:49:21.784Z,18.40
2023-05-10T17:51:51.078Z,18.30
2023-05-10T17:54:18.977Z,18.40
2023-05-10T17:56:46.955Z,18.20
2023-05-10T17:59:15.013Z,18.20
2023-05-10T18:01:42.905Z,18.10
2023-05-10T18:04:11.054Z,18.10
2023-05-10T18:06:39.273Z,18.10
2023-05-10T18:09:08.834Z,17.90
2023-05-10T18:11:38.041Z,17.80
2023-05-10T18:14:06.012Z,17.70
2023-05-10T18:16:34.125Z,17.70
2023-05-10T18:19:02.292Z,17.60
2023-05-10T18:21:30.277Z,17.50
2023-05-10T18:23:58.221Z,17.40
2023-05-10T18:26:28.350Z,17.30
2023-05-10T18:28:56.865Z,17.20
2023-05-10T18:31:25.998Z,17.10
2023-05-10T18:33:53.986Z,17.00
2023-05-10T18:36:22.028Z,16.90
2023-05-10T18:38:50.096Z,16.90
2023-05-10T18:41:18.803Z,16.80
2023-05-10T18:43:48.059Z,16.70
2023-05-10T18:46:16.288Z,16.60
2023-05-10T18:48:44.429Z,16.60
2023-05-10T18:51:12.534Z,16.50
2023-05-10T18:53:40.568Z,16.40
2023-05-10T18:56:08.578Z,16.40
2023-05-10T18:58:36.936Z,16.30
2023-05-10T19:01:06.449Z,16.20
2023-05-10T19:03:34.342Z,16.20
2023-05-10T19:06:02.268Z,16.20
2023-05-10T19:08:30.297Z,16.10
2023-05-10T19:10:59.083Z,16.10
2023-05-10T19:13:28.846Z,16.20
2023-05-10T19:16:21.809Z,16.10
2023-05-10T19:18:49.975Z,16.10
2023-05-10T19:21:17.978Z,16.10
2023-05-10T19:23:47.465Z,16.10
2023-05-10T19:26:15.620Z,16.10
2023-05-10T19:28:44.070Z,16.00
2023-05-10T19:31:13.573Z,16.00
2023-05-10T19:33:41.669Z,16.00
2023-05-10T19:36:10.116Z,15.90
2023-05-10T19:38:38.684Z,15.90
2023-05-10T19:41:06.750Z,15.80
2023-05-10T19:43:35.320Z,15.70
2023-05-10T19:46:03.724Z,15.70
2023-05-10T19:48:33.479Z,15.70
2023-05-10T19:51:03.329Z,15.60
2023-05-10T19:53:31.609Z,15.60
2023-05-10T19:56:04.863Z,15.50
2023-05-10T19:58:33.180Z,15.50
2023-05-10T20:01:01.427Z,15.50
2023-05-10T20:03:29.743Z,15.40
2023-05-10T20:05:59.052Z,15.40
2023-05-10T20:08:27.041Z,15.40
2023-05-10T20:11:24.783Z,15.40
2023-05-10T20:13:53.890Z,15.30
2023-05-10T20:16:22.588Z,15.30
2023-05-10T20:18:53.641Z,15.20
2023-05-10T20:21:23.996Z,15.20
2023-05-10T20:23:51.973Z,15.20
2023-05-10T20:26:19.971Z,15.20
2023-05-10T20:28:47.963Z,15.10
2023-05-10T20:31:15.948Z,15.10
2023-05-10T20:33:44.069Z,15.10
2023-05-10T20:36:12.263Z,15.10
2023-05-10T20:38:42.424Z,15.10
2023-05-10T20:41:10.394Z,15.10
2023-05-10T20:43:38.326Z,15.00
2023-05-10T20:46:06.456Z,15.00
2023-05-10T20:48:34.893Z,15.00
2023-05-10T20:51:03.314Z,15.00
2023-05-10T20:53:31.362Z,15.00
2023-05-10T20:56:00.653Z,15.00
2023-05-10T20:58:28.591Z,15.00
2023-05-10T21:00:56.763Z,14.90
2023-05-10T21:03:24.659Z,14.90
2023-05-10T21:05:52.759Z,14.90
2023-05-10T21:08:20.691Z,14.90
2023-05-10T21:10:48.975Z,14.80
2023-05-10T21:13:18.594Z,14.80
2023-05-10T21:15:46.789Z,14.80
2023-05-10T21:18:14.797Z,14.80
2023-05-10T21:20:42.874Z,14.70
2023-05-10T21:23:10.834Z,14.70
2023-05-10T21:25:38.753Z,14.70
2023-05-10T21:28:06.735Z,14.70
2023-05-10T21:30:36.027Z,14.70
2023-05-10T21:33:04.427Z,14.60
2023-05-10T21:35:32.651Z,14.60
2023-05-10T21:38:00.521Z,14.60
2023-05-10T21:40:29.945Z,14.60
2023-05-10T21:42:58.479Z,14.60
2023-05-10T21:45:26.410Z,14.60
2023-05-10T21:47:55.749Z,14.60
2023-05-10T21:50:23.905Z,14.50
2023-05-10T21:52:52.249Z,14.50
2023-05-10T21:55:20.578Z,14.50
2023-05-10T21:57:48.626Z,14.50
2023-05-10T22:00:19.310Z,14.50
2023-05-10T22:02:50.469Z,14.50
2023-05-10T22:05:19.813Z,14.50
2023-05-10T22:07:47.710Z,14.50
2023-05-10T22:10:15.995Z,14.40
2023-05-10T22:12:44.036Z,14.40
2023-05-10T22:15:12.506Z,14.40
2023-05-10T22:17:41.088Z,14.40
2023-05-10T22:20:10.191Z,14.40
2023-05-10T22:22:39.464Z,14.40
2023-05-10T22:25:08.537Z,14.30
2023-05-10T22:27:36.673Z,14.30
2023-05-10T22:30:05.625Z,14.30
2023-05-10T22:32:34.300Z,14.20
2023-05-10T22:35:02.289Z,14.30
2023-05-10T22:37:30.223Z,14.20
2023-05-10T22:39:59.521Z,14.20
2023-05-10T22:42:27.415Z,14.20
2023-05-10T22:44:55.314Z,14.10
2023-05-10T22:47:23.207Z,14.10
2023-05-10T22:49:51.159Z,14.00
2023-05-10T22:52:19.022Z,14.00
2023-05-10T22:54:46.989Z,13.90
2023-05-10T22:57:16.461Z,13.90
2023-05-10T22:59:44.640Z,13.80
2023-05-10T23:02:14.238Z,13.80
2023-05-10T23:04:42.483Z,13.80
2023-05-10T23:07:10.430Z,13.70
2023-05-10T23:09:38.300Z,13.90
2023-05-10T23:12:06.247Z,13.70
2023-05-10T23:14:35.545Z,13.70
2023-05-10T23:17:03.421Z,13.70
2023-05-10T23:19:31.434Z,13.60
2023-05-10T23:21:59.908Z,13.60
2023-05-10T23:24:27.832Z,13.60
2023-05-10T23:26:56.016Z,13.50
2023-05-10T23:29:26.278Z,13.50
2023-05-10T23:31:55.614Z,13.40
2023-05-10T23:34:23.548Z,13.40
2023-05-10T23:36:51.776Z,13.30
2023-05-10T23:39:19.684Z,13.30
2023-05-10T23:44:14.804Z,13.10
2023-05-10T23:46:42.783Z,13.10
2023-05-10T23:49:12.049Z,12.90
2023-05-10T23:51:40.014Z,12.90
2023-05-10T23:54:08.618Z,12.80
2023-05-10T23:56:36.528Z,12.70
2023-05-10T23:59:05.913Z,12.60
